Time;durP1;ratioP1;P1;durP2;ratioP2;P2;SDS_P1;SDS_P2;PMS_P1;PMS_P2;Temp;Humidity;BMP_temperature;BMP_pressure;BME280_temperature;BME280_humidity;BME280_pressure;Samples;Min_cycle;Max_cycle;Signal;HPM_P1;HPM_P2
2022/12/26 00:01:48;;;;;;;196.18;38.30;;;8.40;99.90;;;;;;4958150;28;20053;-84
2022/12/26 00:04:17;;;;;;;203.40;37.80;;;8.40;99.90;;;;;;4959664;28;20049;-83
2022/12/26 00:06:43;;;;;;;217.88;36.50;;;8.50;99.90;;;;;;4968796;28;20050;-86
2022/12/26 00:09:09;;;;;;;176.23;36.10;;;8.40;99.90;;;;;;4959929;28;20060;-84
2022/12/26 00:11:36;;;;;;;221.38;39.00;;;8.40;99.90;;;;;;4979499;28;20081;-83
2022/12/26 00:14:11;;;;;;;285.60;40.53;;;8.40;99.90;;;;;;4960969;28;20045;-82
2022/12/26 00:16:39;;;;;;;173.80;34.25;;;8.40;99.90;;;;;;4979613;28;20046;-84
2022/12/26 00:19:07;;;;;;;202.88;38.40;;;8.40;99.90;;;;;;4977244;28;20104;-83
2022/12/26 00:21:33;;;;;;;224.23;36.35;;;8.40;99.90;;;;;;4978783;28;20088;-87
2022/12/26 00:23:59;;;;;;;155.88;32.95;;;8.40;99.90;;;;;;4976719;28;20074;-83
2022/12/26 00:26:28;;;;;;;240.32;37.15;;;8.40;99.90;;;;;;4976353;28;20507;-88
2022/12/26 00:28:54;;;;;;;171.27;33.55;;;8.40;99.90;;;;;;4993171;28;20046;-83
2022/12/26 00:31:26;;;;;;;188.05;34.08;;;8.40;99.90;;;;;;4943352;28;20050;-83
2022/12/26 00:33:53;;;;;;;184.52;37.95;;;8.40;99.90;;;;;;4976840;28;20113;-84
2022/12/26 00:36:22;;;;;;;141.52;32.55;;;8.40;99.90;;;;;;4957972;28;20052;-82
2022/12/26 00:38:48;;;;;;;145.65;31.10;;;8.40;99.90;;;;;;4994923;28;20129;-85
2022/12/26 00:41:16;;;;;;;170.30;34.42;;;8.40;99.90;;;;;;4961758;28;20042;-83
2022/12/26 00:43:41;;;;;;;140.23;35.08;;;8.40;99.90;;;;;;4962803;28;20050;-84
2022/12/26 00:46:08;;;;;;;172.38;36.38;;;8.40;99.90;;;;;;4992451;28;20165;-83
2022/12/26 00:48:34;;;;;;;255.85;38.05;;;8.40;99.90;;;;;;4978121;28;20092;-84
2022/12/26 00:51:00;;;;;;;164.07;34.35;;;8.50;99.90;;;;;;4976458;28;20050;-83
2022/12/26 00:53:26;;;;;;;150.32;37.10;;;8.40;99.90;;;;;;4994167;28;20124;-83
2022/12/26 00:55:53;;;;;;;154.82;32.95;;;8.40;99.90;;;;;;4993438;28;20424;-84
2022/12/26 00:58:20;;;;;;;220.20;36.50;;;8.40;99.90;;;;;;4959704;28;20132;-85
2022/12/26 01:00:46;;;;;;;162.85;34.42;;;8.40;99.90;;;;;;4980588;28;20063;-83
2022/12/26 01:03:15;;;;;;;177.90;35.38;;;8.40;99.90;;;;;;4977731;28;20045;-83
2022/12/26 01:05:50;;;;;;;191.05;35.53;;;8.40;99.90;;;;;;4967470;28;20046;-84
2022/12/26 01:08:17;;;;;;;139.57;30.52;;;8.50;99.90;;;;;;4962348;28;20061;-84
2022/12/26 01:10:45;;;;;;;170.27;33.50;;;8.40;99.90;;;;;;4975520;28;20403;-83
2022/12/26 01:13:11;;;;;;;128.45;31.05;;;8.40;99.90;;;;;;4977972;28;20045;-84
2022/12/26 01:15:37;;;;;;;117.07;29.05;;;8.40;99.90;;;;;;4979192;28;20867;-83
2022/12/26 01:18:03;;;;;;;145.48;31.85;;;8.40;99.90;;;;;;4945968;28;20229;-84
2022/12/26 01:20:29;;;;;;;124.30;29.20;;;8.40;99.90;;;;;;4957919;28;20124;-83
2022/12/26 01:22:55;;;;;;;160.57;31.58;;;8.40;99.90;;;;;;4966982;28;20050;-82
2022/12/26 01:25:22;;;;;;;165.35;31.50;;;8.40;99.90;;;;;;4961338;28;20589;-83
2022/12/26 01:27:50;;;;;;;151.43;30.58;;;8.40;99.90;;;;;;4978202;28;20038;-83
2022/12/26 01:30:16;;;;;;;121.53;27.00;;;8.40;99.90;;;;;;4977411;28;20085;-82
2022/12/26 01:32:41;;;;;;;145.25;30.80;;;8.40;99.90;;;;;;4977854;28;20570;-83
2022/12/26 01:35:08;;;;;;;138.15;30.00;;;8.40;99.90;;;;;;4941704;28;20050;-82
2022/12/26 01:37:33;;;;;;;93.88;26.38;;;8.40;99.90;;;;;;4955757;28;20050;-82
2022/12/26 01:39:59;;;;;;;93.18;26.27;;;8.40;99.90;;;;;;4960802;28;20045;-82
2022/12/26 01:42:25;;;;;;;159.85;30.50;;;8.40;99.90;;;;;;4960934;28;20136;-85
2022/12/26 01:45:18;;;;;;;89.85;24.20;;;8.40;99.90;;;;;;4991635;28;20058;-83
2022/12/26 01:47:59;;;;;;;107.05;25.40;;;8.50;99.90;;;;;;4992228;28;20137;-83
2022/12/26 01:50:29;;;;;;;98.80;23.95;;;8.40;99.90;;;;;;4992371;28;20759;-83
2022/12/26 01:53:03;;;;;;;107.50;23.13;;;8.50;99.90;;;;;;4975350;28;20137;-84
2022/12/26 01:55:30;;;;;;;61.75;19.08;;;8.50;99.90;;;;;;4976355;28;20057;-82
2022/12/26 01:58:03;;;;;;;90.95;21.60;;;8.40;99.90;;;;;;4947825;28;20053;-85
2022/12/26 02:00:30;;;;;;;82.47;21.25;;;8.50;99.90;;;;;;4976193;28;20057;-81
2022/12/26 02:05:42;;;;;;;74.53;20.67;;;8.40;99.90;;;;;;4972574;28;20056;-81
2022/12/26 02:08:14;;;;;;;91.72;22.20;;;8.40;99.90;;;;;;4992261;28;20061;-82
2022/12/26 02:10:50;;;;;;;88.10;21.88;;;8.50;99.90;;;;;;4975518;28;20149;-81
2022/12/26 02:13:17;;;;;;;87.03;23.17;;;8.50;99.90;;;;;;4989887;28;20075;-83
2022/12/26 02:15:43;;;;;;;87.03;22.45;;;8.50;99.90;;;;;;4985219;28;20077;-83
2022/12/26 02:18:09;;;;;;;91.70;22.80;;;8.50;99.90;;;;;;4956442;28;20074;-82
2022/12/26 02:20:48;;;;;;;103.35;23.40;;;8.50;99.90;;;;;;4951197;28;20534;-82
2022/12/26 02:23:42;;;;;;;77.35;21.48;;;8.50;99.90;;;;;;4978005;28;20041;-81
2022/12/26 02:26:28;;;;;;;73.32;20.23;;;8.50;99.90;;;;;;4974011;28;20065;-82
2022/12/26 02:29:23;;;;;;;89.55;22.42;;;8.50;99.90;;;;;;4975222;28;20168;-83
2022/12/26 02:32:18;;;;;;;63.20;19.15;;;8.50;99.90;;;;;;4974602;28;20396;-82
2022/12/26 02:35:03;;;;;;;79.35;22.58;;;8.50;99.90;;;;;;4975338;28;20400;-83
2022/12/26 02:37:51;;;;;;;74.90;21.63;;;8.50;99.90;;;;;;4992117;28;20104;-82
2022/12/26 02:40:50;;;;;;;77.65;20.73;;;8.50;99.90;;;;;;4976351;28;20396;-82
2022/12/26 02:43:51;;;;;;;87.72;23.27;;;8.50;99.90;;;;;;4993002;28;20045;-84
2022/12/26 03:13:09;;;;;;;92.20;23.85;;;8.50;99.90;;;;;;4989070;28;20089;-82
2022/12/26 03:15:05;;;;;;;97.65;30.02;;;8.70;99.90;;;;;;4981841;28;20101;-83
2022/12/26 03:18:04;;;;;;;104.47;32.08;;;8.60;99.90;;;;;;4974031;28;20049;-84
2022/12/26 03:20:34;;;;;;;121.72;33.67;;;8.60;99.90;;;;;;4969731;28;20062;-82
2022/12/26 03:23:04;;;;;;;96.57;32.35;;;8.60;99.90;;;;;;4975338;28;20045;-83
2022/12/26 03:28:41;;;;;;;109.32;34.38;;;8.70;99.90;;;;;;4972387;28;20172;-84
2022/12/26 03:31:10;;;;;;;113.43;35.13;;;8.60;99.90;;;;;;4956980;28;20125;-82
2022/12/26 03:36:30;;;;;;;108.90;33.35;;;8.60;99.90;;;;;;4994453;28;20054;-83
2022/12/26 03:39:11;;;;;;;98.47;33.22;;;8.60;99.90;;;;;;4973431;28;20384;-84
2022/12/26 04:44:09;;;;;;;97.97;36.08;;;8.70;99.90;;;;;;4994384;28;20049;-83
2022/12/26 04:46:43;;;;;;;92.82;34.95;;;8.70;99.90;;;;;;4975591;28;20051;-82
2022/12/26 04:51:59;;;;;;;93.97;34.13;;;8.70;99.90;;;;;;4977212;28;20046;-82
2022/12/26 04:54:26;;;;;;;92.13;35.05;;;8.70;99.90;;;;;;4986513;28;20056;-83
2022/12/26 04:56:52;;;;;;;94.85;34.97;;;8.60;99.90;;;;;;4977444;28;20077;-83
2022/12/26 04:59:18;;;;;;;93.03;35.30;;;8.60;99.90;;;;;;4977906;28;20081;-83
2022/12/26 05:10:17;;;;;;;71.18;29.80;;;8.50;99.90;;;;;;4975660;28;20049;-83
2022/12/26 05:13:02;;;;;;;76.57;30.42;;;8.50;99.90;;;;;;4972169;28;20050;-83
2022/12/26 05:28:40;;;;;;;88.38;32.20;;;8.50;99.90;;;;;;4976394;28;20109;-82
2022/12/26 05:29:19;;;;;;;66.13;28.33;;;8.50;99.90;;;;;;4989080;28;20527;-83
2022/12/26 05:31:45;;;;;;;69.25;29.08;;;8.50;99.90;;;;;;4942390;28;20077;-83
2022/12/26 05:34:11;;;;;;;56.72;24.58;;;8.50;99.90;;;;;;4958828;28;20491;-83
2022/12/26 05:36:42;;;;;;;88.18;31.95;;;8.40;99.90;;;;;;4960950;28;20084;-83
2022/12/26 05:39:08;;;;;;;72.28;28.95;;;8.40;99.90;;;;;;4989101;28;20054;-83
2022/12/26 05:41:34;;;;;;;74.70;29.63;;;8.40;99.90;;;;;;4994411;28;20119;-84
2022/12/26 05:44:00;;;;;;;65.78;29.27;;;8.30;99.90;;;;;;4977739;28;20050;-83
2022/12/26 05:46:26;;;;;;;56.85;25.92;;;8.30;99.90;;;;;;4942516;28;20065;-82
2022/12/26 05:48:52;;;;;;;54.67;26.35;;;8.40;99.90;;;;;;4986819;28;20046;-83
2022/12/26 05:51:18;;;;;;;58.28;26.02;;;8.40;99.90;;;;;;4959587;28;20049;-83
2022/12/26 05:53:44;;;;;;;62.15;27.40;;;8.40;99.90;;;;;;4981460;28;20045;-84
2022/12/26 05:56:15;;;;;;;53.90;26.88;;;8.40;99.90;;;;;;4993777;28;20067;-83
2022/12/26 05:58:41;;;;;;;61.65;26.85;;;8.40;99.90;;;;;;4976616;28;20061;-82
2022/12/26 06:01:15;;;;;;;53.83;24.27;;;8.40;99.90;;;;;;4977229;28;20129;-83
2022/12/26 06:03:42;;;;;;;51.45;24.98;;;8.40;99.90;;;;;;4968847;28;20065;-83
2022/12/26 06:06:10;;;;;;;62.92;27.27;;;8.30;99.90;;;;;;4969066;28;20045;-83
2022/12/26 06:08:37;;;;;;;58.67;25.73;;;8.30;99.90;;;;;;4963203;28;20119;-84
2022/12/26 06:11:09;;;;;;;63.95;26.23;;;8.20;99.90;;;;;;4973683;28;20511;-84
2022/12/26 06:13:35;;;;;;;71.10;28.92;;;8.40;99.90;;;;;;4977375;28;20052;-83
2022/12/26 06:16:10;;;;;;;58.88;26.50;;;8.40;99.90;;;;;;4978316;28;20133;-84
2022/12/26 06:18:36;;;;;;;55.47;25.42;;;8.40;99.90;;;;;;4986661;28;20058;-84
2022/12/26 06:21:06;;;;;;;56.47;25.95;;;8.40;99.90;;;;;;4992572;28;20128;-85
2022/12/26 06:23:36;;;;;;;44.97;23.98;;;8.40;99.90;;;;;;4977340;28;20076;-89
2022/12/26 06:26:07;;;;;;;45.17;22.45;;;8.40;99.90;;;;;;4976603;28;20042;-84
2022/12/26 06:28:36;;;;;;;47.47;23.95;;;8.40;99.90;;;;;;4981004;28;20050;-88
2022/12/26 06:31:19;;;;;;;43.13;22.60;;;8.40;99.90;;;;;;4971666;28;20057;-83
2022/12/26 06:33:54;;;;;;;51.13;25.10;;;8.40;99.90;;;;;;4969190;28;20503;-83
2022/12/26 06:36:22;;;;;;;48.30;24.38;;;8.50;99.90;;;;;;4976064;28;20100;-84
2022/12/26 06:38:49;;;;;;;44.00;22.23;;;8.40;99.90;;;;;;4991001;28;21241;-84
2022/12/26 06:41:17;;;;;;;50.85;23.60;;;8.40;99.90;;;;;;4992631;28;20125;-83
2022/12/26 06:43:51;;;;;;;49.72;24.38;;;8.50;99.90;;;;;;4975452;28;20396;-84
2022/12/26 06:46:26;;;;;;;46.28;23.52;;;8.50;99.90;;;;;;4968108;28;20464;-83
2022/12/26 06:49:16;;;;;;;41.95;21.58;;;8.50;99.90;;;;;;4972405;28;20042;-84
2022/12/26 06:51:46;;;;;;;41.35;20.27;;;8.50;99.90;;;;;;4987481;28;20740;-84
2022/12/26 06:54:19;;;;;;;41.40;22.40;;;8.50;99.90;;;;;;4973893;28;20569;-84
2022/12/26 06:56:45;;;;;;;39.17;21.60;;;8.50;99.90;;;;;;4991508;28;20046;-83
2022/12/26 06:59:11;;;;;;;41.50;21.80;;;8.50;99.90;;;;;;4977124;28;20136;-84
2022/12/26 07:01:45;;;;;;;41.22;22.48;;;8.50;99.90;;;;;;4977505;28;20115;-84
2022/12/26 07:04:22;;;;;;;41.60;21.25;;;8.50;99.90;;;;;;4964942;28;20488;-86
2022/12/26 07:06:48;;;;;;;34.55;19.30;;;8.50;99.90;;;;;;4981835;28;20038;-85
2022/12/26 07:09:17;;;;;;;36.92;20.17;;;8.50;99.90;;;;;;4991488;28;20113;-83
2022/12/26 07:11:50;;;;;;;35.38;17.77;;;8.60;99.90;;;;;;4976252;28;20145;-84
2022/12/26 07:14:25;;;;;;;35.25;19.33;;;8.50;99.90;;;;;;4993243;28;20049;-84
2022/12/26 07:16:59;;;;;;;27.67;17.25;;;8.60;99.90;;;;;;4982457;28;20053;-83
2022/12/26 07:19:27;;;;;;;30.48;18.70;;;8.60;99.90;;;;;;4978468;28;20045;-85
2022/12/26 07:21:55;;;;;;;32.25;18.73;;;8.60;99.90;;;;;;4980402;28;20041;-84
2022/12/26 07:24:24;;;;;;;29.98;17.58;;;8.60;99.90;;;;;;4961002;28;20104;-84
2022/12/26 07:26:50;;;;;;;30.08;17.10;;;8.60;99.90;;;;;;4977554;28;20478;-85
2022/12/26 07:29:16;;;;;;;29.52;17.35;;;8.50;99.90;;;;;;4974102;28;20052;-84
2022/12/26 07:32:06;;;;;;;30.00;18.25;;;8.50;99.90;;;;;;4972247;28;20078;-86
2022/12/26 07:34:34;;;;;;;30.15;16.33;;;8.50;99.90;;;;;;4973030;28;20050;-84
2022/12/26 07:37:09;;;;;;;28.95;17.52;;;8.50;99.90;;;;;;4962955;28;20404;-84
2022/12/26 07:39:37;;;;;;;29.30;17.45;;;8.60;99.90;;;;;;4997549;28;20463;-84
2022/12/26 07:42:11;;;;;;;31.60;17.08;;;8.60;99.90;;;;;;4978752;28;20645;-84
2022/12/26 07:44:38;;;;;;;30.02;17.02;;;8.60;99.90;;;;;;4980593;28;20045;-84
2022/12/26 07:47:10;;;;;;;28.73;16.50;;;8.50;99.90;;;;;;4980122;28;20042;-84
2022/12/26 07:49:36;;;;;;;29.67;17.35;;;8.60;99.90;;;;;;4962011;28;20042;-83
2022/12/26 07:52:03;;;;;;;29.40;17.88;;;8.60;99.90;;;;;;4978704;28;20128;-84
2022/12/26 07:54:31;;;;;;;32.50;17.70;;;8.50;99.90;;;;;;4980677;28;20046;-84
2022/12/26 07:56:59;;;;;;;31.92;18.83;;;8.50;99.90;;;;;;4979134;28;20194;-84
2022/12/26 07:59:27;;;;;;;30.67;16.42;;;8.40;99.90;;;;;;4976776;28;20057;-84
2022/12/26 08:01:56;;;;;;;34.17;19.02;;;8.40;99.90;;;;;;4961025;28;20057;-84
2022/12/26 08:04:27;;;;;;;32.88;18.52;;;8.40;99.90;;;;;;4995420;28;20038;-85
2022/12/26 08:07:03;;;;;;;;;;;;;;;;;;;;;
2022/12/26 08:09:31;;;;;;;27.05;15.32;;;8.40;99.90;;;;;;4989141;28;20042;-84
2022/12/26 08:12:07;;;;;;;28.08;16.55;;;8.30;99.90;;;;;;4971722;28;20081;-84
2022/12/26 08:14:39;;;;;;;30.23;18.10;;;8.30;99.90;;;;;;4962022;28;20050;-84
2022/12/26 08:17:08;;;;;;;32.03;17.15;;;8.30;99.90;;;;;;4974172;28;20061;-88
2022/12/26 08:19:36;;;;;;;35.13;17.67;;;8.40;99.90;;;;;;4982726;28;20484;-84
2022/12/26 08:22:08;;;;;;;26.63;17.45;;;8.40;99.90;;;;;;4984455;28;20480;-84
2022/12/26 08:24:38;;;;;;;29.85;16.48;;;8.30;99.90;;;;;;4980051;28;20057;-84
2022/12/26 08:27:09;;;;;;;25.00;16.73;;;8.30;99.90;;;;;;4979111;28;20553;-84
2022/12/26 08:29:37;;;;;;;25.48;15.32;;;8.40;99.90;;;;;;4975536;28;20650;-84
2022/12/26 08:32:06;;;;;;;25.63;15.68;;;8.50;99.90;;;;;;4976388;28;20051;-87
2022/12/26 08:34:37;;;;;;;25.02;15.05;;;8.50;99.90;;;;;;4979105;28;20060;-85
2022/12/26 08:37:08;;;;;;;28.88;15.88;;;8.60;99.90;;;;;;4977063;28;20044;-84
2022/12/26 08:39:36;;;;;;;20.77;13.00;;;8.60;99.90;;;;;;4985888;28;20488;-84
2022/12/26 08:42:10;;;;;;;27.70;15.70;;;8.60;99.90;;;;;;4958839;28;20096;-85
2022/12/26 08:44:41;;;;;;;23.95;14.43;;;8.70;99.90;;;;;;4966475;28;20054;-84
2022/12/26 08:47:07;;;;;;;27.92;14.60;;;8.60;99.90;;;;;;4979651;28;20400;-85
2022/12/26 08:49:36;;;;;;;19.42;12.77;;;8.70;99.90;;;;;;4982855;28;20042;-85
2022/12/26 08:52:07;;;;;;;24.08;13.88;;;8.70;99.90;;;;;;4964189;28;20516;-86
2022/12/26 08:54:42;;;;;;;19.15;9.95;;;8.70;99.90;;;;;;4994496;28;20050;-88
2022/12/26 08:57:18;;;;;;;;;;;;;;;;;;;;;
2022/12/26 08:59:47;;;;;;;17.38;11.85;;;8.70;99.90;;;;;;4991257;28;20404;-84
2022/12/26 09:02:15;;;;;;;18.00;10.65;;;8.70;99.90;;;;;;4959838;28;20054;-84
2022/12/26 09:04:44;;;;;;;21.17;10.88;;;8.80;99.90;;;;;;4995374;28;20050;-84
2022/12/26 09:07:09;;;;;;;20.55;10.88;;;8.70;99.90;;;;;;4978739;28;20053;-83
2022/12/26 09:09:38;;;;;;;20.00;10.20;;;8.80;99.90;;;;;;4975404;28;20050;-85
2022/12/26 09:12:07;;;;;;;19.58;9.73;;;8.80;99.90;;;;;;4987535;28;20042;-85
2022/12/26 09:14:40;;;;;;;15.82;9.75;;;8.80;99.90;;;;;;4983687;28;20041;-84
2022/12/26 09:17:09;;;;;;;20.70;13.20;;;8.80;99.90;;;;;;4975862;28;20042;-85
2022/12/26 09:19:37;;;;;;;17.88;10.20;;;8.80;99.90;;;;;;4977426;28;20041;-84
2022/12/26 09:24:50;;;;;;;16.33;10.25;;;8.80;99.90;;;;;;4981667;28;20054;-85
2022/12/26 09:27:16;;;;;;;13.45;8.77;;;8.80;99.90;;;;;;4944886;28;20048;-83
2022/12/26 09:29:42;;;;;;;19.33;8.98;;;8.80;99.90;;;;;;4978153;28;20077;-84
2022/12/26 09:32:07;;;;;;;18.92;8.45;;;8.80;99.90;;;;;;4957825;28;20042;-85
2022/12/26 09:34:36;;;;;;;15.95;7.72;;;8.70;99.90;;;;;;4960485;28;20061;-85
2022/12/26 09:37:02;;;;;;;12.57;7.45;;;8.80;99.90;;;;;;4975078;28;20056;-85
2022/12/26 09:39:27;;;;;;;19.63;10.82;;;8.80;99.90;;;;;;4977685;28;20100;-85
2022/12/26 09:42:14;;;;;;;12.55;7.97;;;8.80;99.90;;;;;;4977988;28;20499;-85
2022/12/26 09:45:18;;;;;;;17.40;7.32;;;8.80;99.90;;;;;;4974561;28;20700;-83
2022/12/26 09:48:04;;;;;;;13.20;7.68;;;8.80;99.90;;;;;;4974898;28;20121;-85
2022/12/26 09:50:33;;;;;;;12.80;7.50;;;8.80;99.90;;;;;;4987868;28;20058;-86
2022/12/26 09:53:12;;;;;;;14.32;8.50;;;8.80;99.90;;;;;;4976517;28;20050;-85
2022/12/26 09:55:50;;;;;;;13.50;7.07;;;8.80;99.90;;;;;;4982441;28;20046;-84
2022/12/26 09:58:24;;;;;;;12.60;7.38;;;8.80;99.90;;;;;;4976965;28;20049;-85
2022/12/26 10:01:04;;;;;;;11.50;5.60;;;8.80;99.90;;;;;;4978116;28;20053;-83
2022/12/26 10:03:38;;;;;;;11.18;5.90;;;8.70;99.90;;;;;;4993401;28;20050;-83
2022/12/26 10:06:12;;;;;;;14.73;5.57;;;8.70;99.90;;;;;;4976855;28;20060;-86
2022/12/26 10:09:09;;;;;;;11.85;4.60;;;8.70;99.90;;;;;;4993400;28;20053;-84
2022/12/26 10:12:16;;;;;;;25.05;4.40;;;8.60;99.90;;;;;;4976446;28;20050;-83
2022/12/26 10:15:12;;;;;;;17.85;3.70;;;8.30;99.90;;;;;;4913908;29;20055;-85
2022/12/26 10:18:02;;;;;;;16.13;2.58;;;8.00;99.90;;;;;;4985881;28;20050;-83
2022/12/26 10:21:16;;;;;;;13.60;2.30;;;7.60;99.90;;;;;;4976753;28;20050;-82
2022/12/26 10:23:45;;;;;;;11.57;2.15;;;7.30;98.20;;;;;;4960962;28;20058;-85
2022/12/26 10:26:16;;;;;;;17.77;3.25;;;7.00;99.90;;;;;;4975519;28;20084;-84
2022/12/26 10:28:52;;;;;;;14.80;2.65;;;6.80;99.90;;;;;;4965422;28;20046;-83
2022/12/26 10:31:22;;;;;;;12.20;2.65;;;6.90;99.90;;;;;;4962361;28;20145;-83
2022/12/26 10:34:26;;;;;;;16.90;2.40;;;6.80;99.90;;;;;;4975519;28;20405;-83
2022/12/26 10:37:09;;;;;;;9.10;2.40;;;6.80;99.90;;;;;;4928933;28;20098;-84
2022/12/26 10:40:07;;;;;;;16.83;2.38;;;6.80;99.90;;;;;;4994426;28;20046;-83
2022/12/26 10:42:42;;;;;;;10.23;2.38;;;6.80;99.90;;;;;;4987641;28;20112;-82
2022/12/26 10:45:17;;;;;;;10.68;2.45;;;7.00;99.90;;;;;;4975227;28;20057;-85
2022/12/26 10:47:45;;;;;;;16.75;2.25;;;7.10;99.90;;;;;;4984542;28;20034;-83
2022/12/26 10:50:29;;;;;;;12.32;2.22;;;7.10;99.90;;;;;;4993250;28;20100;-84
2022/12/26 10:52:57;;;;;;;12.00;3.60;;;6.90;99.90;;;;;;4980792;28;20078;-87
2022/12/26 10:55:28;;;;;;;10.00;2.45;;;7.10;99.90;;;;;;4965000;28;20128;-85
2022/12/26 10:57:54;;;;;;;10.90;1.50;;;7.10;99.90;;;;;;4996802;28;20503;-84
2022/12/26 11:00:25;;;;;;;12.25;1.88;;;7.10;99.90;;;;;;4980792;28;20046;-83
2022/12/26 11:03:21;;;;;;;10.10;1.70;;;7.20;99.90;;;;;;4968749;28;20058;-83
2022/12/26 11:05:50;;;;;;;13.13;1.92;;;7.20;99.90;;;;;;4980788;28;20392;-83
2022/12/26 11:08:24;;;;;;;10.48;2.10;;;7.10;99.90;;;;;;4989767;28;20464;-83
2022/12/26 11:11:06;;;;;;;13.88;2.35;;;7.10;99.90;;;;;;4977146;28;20056;-82
2022/12/26 11:13:38;;;;;;;9.60;1.77;;;7.00;99.90;;;;;;4983968;28;20134;-84
2022/12/26 11:16:05;;;;;;;8.13;1.35;;;6.80;99.90;;;;;;4973997;28;20046;-83
2022/12/26 11:18:37;;;;;;;12.63;2.72;;;6.70;99.90;;;;;;4969726;28;20050;-84
2022/12/26 11:21:29;;;;;;;8.35;1.80;;;6.70;99.90;;;;;;4977170;28;20054;-84
2022/12/26 11:24:07;;;;;;;12.93;2.30;;;6.70;99.90;;;;;;4955941;28;20064;-83
2022/12/26 11:26:34;;;;;;;11.70;1.77;;;6.80;99.90;;;;;;4961256;28;20115;-83
2022/12/26 11:29:09;;;;;;;15.70;3.33;;;6.70;99.90;;;;;;4991882;28;20129;-84
2022/12/26 11:31:35;;;;;;;14.70;1.83;;;6.70;99.90;;;;;;4980335;28;20057;-84
2022/12/26 11:34:06;;;;;;;16.17;2.13;;;6.70;99.90;;;;;;4959513;28;20058;-85
2022/12/26 11:36:34;;;;;;;9.13;1.30;;;6.60;99.90;;;;;;4976970;28;20050;-84
2022/12/26 11:39:04;;;;;;;22.90;2.42;;;6.60;99.90;;;;;;4960699;28;20077;-84
2022/12/26 11:41:41;;;;;;;10.18;2.13;;;6.50;99.90;;;;;;4992547;28;20038;-84
2022/12/26 11:44:10;;;;;;;14.82;1.88;;;6.50;99.90;;;;;;4964466;28;20050;-84
2022/12/26 11:46:50;;;;;;;9.57;1.67;;;6.50;99.90;;;;;;4976229;28;20181;-84
2022/12/26 11:49:40;;;;;;;13.07;2.78;;;6.50;99.90;;;;;;4976842;28;20046;-87
2022/12/26 11:52:35;;;;;;;6.80;1.83;;;6.50;99.90;;;;;;4972931;28;20385;-84
2022/12/26 11:55:01;;;;;;;11.85;1.38;;;6.50;99.90;;;;;;4990328;28;20088;-86
2022/12/26 11:57:30;;;;;;;8.65;1.95;;;6.50;99.90;;;;;;4976530;28;20078;-84
2022/12/26 12:00:19;;;;;;;12.07;1.70;;;6.30;99.90;;;;;;4973459;28;20065;-85
2022/12/26 12:02:48;;;;;;;12.18;2.20;;;6.30;99.90;;;;;;4987905;28;20042;-85
2022/12/26 12:05:47;;;;;;;14.27;1.98;;;6.20;99.90;;;;;;4971389;28;20061;-84
2022/12/26 12:08:13;;;;;;;13.10;2.58;;;6.20;99.90;;;;;;4966932;28;20510;-84
2022/12/26 12:10:57;;;;;;;9.23;1.58;;;6.40;99.90;;;;;;4976490;28;20046;-86
2022/12/26 12:13:37;;;;;;;15.15;1.17;;;6.20;99.90;;;;;;4992439;28;20066;-86
2022/12/26 12:16:42;;;;;;;10.40;1.30;;;6.20;99.90;;;;;;4983563;28;20057;-84
2022/12/26 12:19:14;;;;;;;12.57;1.55;;;6.30;99.90;;;;;;4987482;28;20045;-85
2022/12/26 12:21:55;;;;;;;;;;;;;;;;;;;;;
2022/12/26 12:24:34;;;;;;;12.38;3.20;;;6.30;99.90;;;;;;4979835;28;20049;-88
2022/12/26 12:27:21;;;;;;;11.23;2.35;;;6.40;66.50;;;;;;4973333;28;20038;-84
2022/12/26 12:30:06;;;;;;;16.48;2.00;;;6.50;94.10;;;;;;4984461;28;20078;-85
2022/12/26 12:32:59;;;;;;;18.20;2.90;;;6.50;93.00;;;;;;4976257;28;20050;-86
2022/12/26 12:35:33;;;;;;;18.95;2.83;;;6.50;91.40;;;;;;4976777;28;20100;-85
2022/12/26 12:38:35;;;;;;;18.27;2.28;;;6.50;92.40;;;;;;4999289;28;20072;-85
2022/12/26 12:41:09;;;;;;;14.30;1.98;;;6.50;44.80;;;;;;4986130;28;20085;-85
2022/12/26 12:43:48;;;;;;;;;;;;;;;;;;;;;
2022/12/26 12:47:05;;;;;;;15.73;2.58;;;6.10;46.40;;;;;;4975393;28;20054;-85
2022/12/26 12:49:56;;;;;;;12.43;2.20;;;6.10;1.00;;;;;;4960255;28;20650;-88
2022/12/26 12:52:47;;;;;;;18.15;2.47;;;6.00;1.00;;;;;;4975313;28;20050;-85
2022/12/26 12:55:33;;;;;;;17.20;3.10;;;5.80;1.00;;;;;;4989868;28;20096;-85
2022/12/26 12:58:32;;;;;;;18.05;4.88;;;5.90;1.00;;;;;;4972657;28;20554;-84
2022/12/26 13:01:19;;;;;;;18.33;3.70;;;6.00;1.00;;;;;;4976215;28;20491;-84
2022/12/26 13:04:28;;;;;;;16.55;3.67;;;6.20;1.00;;;;;;4984599;28;20049;-85
2022/12/26 13:07:10;;;;;;;19.20;3.83;;;6.40;1.00;;;;;;4963952;28;20050;-84
2022/12/26 13:09:53;;;;;;;17.02;3.42;;;6.60;1.00;;;;;;4975724;28;20050;-84
2022/12/26 13:12:42;;;;;;;13.02;3.17;;;6.50;1.00;;;;;;4976363;28;20058;-85
2022/12/26 13:15:41;;;;;;;15.05;2.88;;;6.60;1.00;;;;;;4979018;28;20053;-85
2022/12/26 13:18:43;;;;;;;11.10;2.15;;;6.60;1.00;;;;;;4976837;28;20049;-85
2022/12/26 13:21:20;;;;;;;12.65;1.90;;;6.50;99.90;;;;;;4975409;28;20046;-85
2022/12/26 13:27:17;;;;;;;16.73;3.03;;;6.30;1.00;;;;;;4985513;28;20053;-84
2022/12/26 13:29:47;;;;;;;17.42;2.67;;;6.30;1.00;;;;;;4987104;28;20058;-84
2022/12/26 13:32:50;;;;;;;13.80;3.08;;;6.30;1.00;;;;;;4976014;28;20104;-84
2022/12/26 13:35:59;;;;;;;17.00;2.25;;;6.20;1.00;;;;;;4993976;28;20041;-84
2022/12/26 13:38:57;;;;;;;17.48;3.85;;;6.10;99.90;;;;;;4965620;28;20057;-84
2022/12/26 13:44:17;;;;;;;15.98;2.95;;;6.00;1.00;;;;;;4991636;28;20073;-84
2022/12/26 13:46:49;;;;;;;14.35;3.05;;;5.90;1.00;;;;;;4972713;28;20049;-84
2022/12/26 13:50:00;;;;;;;19.60;2.72;;;5.90;99.90;;;;;;4994604;28;20487;-85
2022/12/26 13:52:52;;;;;;;;;;;;;;;;;;;;;
2022/12/26 13:55:39;;;;;;;11.00;3.22;;;5.90;1.00;;;;;;4981043;28;20488;-84
2022/12/26 13:58:34;;;;;;;14.70;2.75;;;6.00;1.00;;;;;;4994610;28;21008;-84
2022/12/26 14:01:24;;;;;;;19.10;3.58;;;6.00;1.00;;;;;;4988814;28;20038;-82
2022/12/26 14:03:59;;;;;;;19.75;2.80;;;6.00;1.00;;;;;;4978195;28;20054;-80
2022/12/26 14:06:39;;;;;;;13.85;2.92;;;6.10;1.00;;;;;;4987493;28;20117;-81
2022/12/26 14:09:26;;;;;;;246.15;25.88;;;6.10;1.00;;;;;;4985198;28;20399;-86
2022/12/26 14:12:05;;;;;;;19.95;3.97;;;6.00;1.00;;;;;;4982565;28;20064;-83
2022/12/26 14:14:51;;;;;;;21.40;3.83;;;5.90;1.00;;;;;;4972790;28;20480;-82
2022/12/26 14:17:28;;;;;;;19.45;4.07;;;5.80;1.00;;;;;;4964523;28;20612;-82
2022/12/26 14:20:13;;;;;;;11.25;3.13;;;5.80;1.00;;;;;;4991199;28;20050;-81
2022/12/26 14:23:14;;;;;;;10.38;1.88;;;5.80;1.00;;;;;;4971726;28;20132;-82
2022/12/26 14:25:40;;;;;;;13.00;2.60;;;5.80;1.00;;;;;;4927782;29;20075;-83
2022/12/26 14:28:31;;;;;;;13.57;2.35;;;5.60;1.00;;;;;;4968274;28;20054;-83
2022/12/26 14:31:12;;;;;;;15.98;2.42;;;5.50;1.00;;;;;;4987275;28;20046;-81
2022/12/26 14:33:49;;;;;;;15.38;2.70;;;5.40;1.00;;;;;;4985373;28;20496;-88
2022/12/26 14:36:37;;;;;;;18.60;3.13;;;5.30;1.00;;;;;;4971373;28;20127;-81
2022/12/26 14:39:34;;;;;;;8.68;2.13;;;5.20;1.00;;;;;;4971480;28;20484;-81
2022/12/26 14:44:55;;;;;;;15.57;2.28;;;5.10;1.00;;;;;;4989186;28;20061;-81
2022/12/26 14:47:47;;;;;;;15.68;2.70;;;5.10;1.00;;;;;;4945914;28;20078;-83
2022/12/26 14:50:31;;;;;;;18.67;2.40;;;5.10;1.00;;;;;;4982278;28;20053;-81
2022/12/26 14:53:15;;;;;;;15.80;2.45;;;5.10;1.00;;;;;;4983909;28;20046;-81
2022/12/26 14:55:46;;;;;;;18.00;2.13;;;5.10;1.00;;;;;;4957370;28;20054;-87
2022/12/26 14:58:24;;;;;;;14.65;2.40;;;5.10;1.00;;;;;;4969017;28;20396;-80
2022/12/26 15:00:50;;;;;;;25.10;9.75;;;5.10;1.00;;;;;;4971778;28;20133;-79
2022/12/26 15:03:40;;;;;;;21.25;6.20;;;5.00;1.00;;;;;;4989768;28;20046;-80
2022/12/26 15:06:38;;;;;;;19.35;7.93;;;5.00;1.00;;;;;;4988783;28;20092;-81
2022/12/26 15:09:07;;;;;;;25.58;10.88;;;5.00;1.00;;;;;;4987739;28;20054;-83
2022/12/26 15:11:48;;;;;;;16.67;5.00;;;5.10;1.00;;;;;;4974458;28;20417;-80
2022/12/26 15:14:47;;;;;;;26.17;12.25;;;5.00;1.00;;;;;;4988659;28;20062;-83
2022/12/26 15:17:51;;;;;;;22.88;9.18;;;5.00;1.00;;;;;;4984356;28;20050;-79
2022/12/26 15:20:25;;;;;;;21.67;10.38;;;5.00;1.00;;;;;;4980871;28;20514;-83
2022/12/26 15:23:16;;;;;;;31.00;12.13;;;5.10;1.00;;;;;;4987844;28;20089;-82
2022/12/26 15:25:58;;;;;;;21.73;8.65;;;5.00;1.00;;;;;;4979331;28;20058;-81
2022/12/26 15:28:41;;;;;;;16.20;8.27;;;5.00;1.00;;;;;;4969327;28;20050;-80
2022/12/26 15:31:25;;;;;;;16.88;3.75;;;5.00;1.00;;;;;;4978202;28;20047;-81
2022/12/26 15:33:57;;;;;;;33.33;16.88;;;5.00;1.00;;;;;;4968195;28;20065;-82
2022/12/26 15:36:33;;;;;;;20.30;7.63;;;5.00;1.00;;;;;;4988315;28;20050;-80
2022/12/26 15:39:18;;;;;;;17.00;4.00;;;4.90;1.00;;;;;;4990732;28;20034;-81
2022/12/26 15:41:49;;;;;;;32.60;19.38;;;4.90;1.00;;;;;;4974663;28;20714;-82
2022/12/26 15:44:47;;;;;;;30.15;18.27;;;4.90;1.00;;;;;;4988697;28;20125;-82